»·PEaware :: DAL273 KOMA-KCOS

DAL273 :: KOMA-KCOS

FLIGHT INFORMATION

Flight Status: Arrived
Operator:
Delta Air Lines
More flights by this operator :: More flights under this callsign
Pilot: Ben F. (2808)
Aircraft: BOEING 727-200
(B722)
More flights by this aircraft type
Origin: KOMA Eppley
United States
Destination: KCOS City Of Colorado Springs Mun
United States
More flights between these airports :: More routes between these airports
Route: CATTL3 LNK J146 GLD HGO
File this flight plan on PilotEdge
Remarks:
Altitude:
(Current/Filed)
32,000ft
Speed:
(Current/Filed)
475kts
Departed: 17-Nov-18 06:29 PM
Arrived: 17-Nov-18 07:46 PM
Distance/Time
Traveled:
431nm/1:16
Distance/Time
To Go:
Arrived

Flight Plot

Page will automatically refresh every two minutes.

Flight plan parsing failed; only flown route is shown


Map Options




Map Legend


Flown Route
Filed Route
Departure Airport
Arrival Airport
Navaid (VOR, NDB)
Fix

Horizontal Profiles

Position Reports

Time Latitude Longitude Heading Altitude Ground
Speed
17-Nov-18 18:14 41.298571 -95.897763 240 996ft 0kts
17-Nov-18 18:15 41.298571 -95.897763 240 996ft 0kts
17-Nov-18 18:16 41.298571 -95.897763 240 996ft 0kts
17-Nov-18 18:17 41.298571 -95.897763 240 996ft 0kts
17-Nov-18 18:18 41.298571 -95.897763 240 996ft 0kts
17-Nov-18 18:19 41.298571 -95.897763 240 996ft 0kts
17-Nov-18 18:20 41.298571 -95.897763 240 996ft 0kts
17-Nov-18 18:21 41.298571 -95.897763 240 996ft 0kts
17-Nov-18 18:22 41.298571 -95.897763 240 996ft 0kts
17-Nov-18 18:23 41.298618 -95.897657 233 996ft 2kts
17-Nov-18 18:24 41.299123 -95.897263 186 996ft 2kts
17-Nov-18 18:25 41.299249 -95.897255 178 996ft 0kts
17-Nov-18 18:26 41.299249 -95.897255 178 996ft 0kts
17-Nov-18 18:27 41.299249 -95.897255 178 996ft 0kts
17-Nov-18 18:28 41.295900 -95.896935 144 996ft 18kts
17-Nov-18 18:29 41.291248 -95.895871 135 996ft 2kts
17-Nov-18 18:30 41.291245 -95.895868 135 996ft 0kts
17-Nov-18 18:31 41.291840 -95.894617 1 996ft 0kts
17-Nov-18 18:32 41.301106 -95.894546 0 997ft 130kts
17-Nov-18 18:33 41.343905 -95.897877 323 2786ft 180kts
17-Nov-18 18:34 41.332760 -95.971518 227 4678ft 286kts
17-Nov-18 18:35 41.293007 -96.055528 239 8585ft 267kts
17-Nov-18 18:36 41.250970 -96.137376 236 11382ft 286kts
17-Nov-18 18:37 41.199841 -96.232366 236 13102ft 340kts
17-Nov-18 18:38 41.145559 -96.332966 237 15947ft 343kts
17-Nov-18 18:39 41.092398 -96.431356 238 18313ft 347kts
17-Nov-18 18:40 41.036306 -96.534894 237 20561ft 349kts
17-Nov-18 18:41 40.979568 -96.639230 236 22503ft 352kts
17-Nov-18 18:42 40.924097 -96.744932 247 24320ft 351kts
17-Nov-18 18:43 40.888944 -96.865509 249 25781ft 356kts
17-Nov-18 18:44 40.854117 -96.987452 250 27230ft 357kts
17-Nov-18 18:45 40.819009 -97.110316 251 28324ft 364kts
17-Nov-18 18:46 40.784029 -97.232358 251 29403ft 366kts
17-Nov-18 18:47 40.748086 -97.357166 251 30568ft 363kts
17-Nov-18 18:48 40.711929 -97.482085 251 31349ft 367kts
17-Nov-18 18:49 40.675635 -97.606854 251 32023ft 369kts
17-Nov-18 18:50 40.638097 -97.735288 251 32040ft 386kts
17-Nov-18 18:51 40.598556 -97.869876 250 32037ft 403kts
17-Nov-18 18:52 40.557446 -98.009057 250 32033ft 415kts
17-Nov-18 18:53 40.515420 -98.150592 250 32031ft 421kts
17-Nov-18 18:54 40.472533 -98.294247 250 32028ft 425kts
17-Nov-18 18:55 40.429255 -98.438432 250 32026ft 426kts
17-Nov-18 18:56 40.385909 -98.582065 250 32024ft 426kts
17-Nov-18 18:57 40.342144 -98.726302 250 32035ft 427kts
17-Nov-18 18:58 40.299199 -98.867112 250 32031ft 429kts
17-Nov-18 18:59 40.254990 -99.011237 250 32013ft 430kts
17-Nov-18 19:00 40.210321 -99.156128 250 32002ft 431kts
17-Nov-18 19:01 40.165598 -99.300444 250 32000ft 430kts
17-Nov-18 19:02 40.120665 -99.444645 250 31998ft 427kts
17-Nov-18 19:03 40.075926 -99.586976 250 31995ft 423kts
17-Nov-18 19:04 40.031580 -99.727119 250 32007ft 418kts
17-Nov-18 19:05 39.987390 -99.866088 250 32005ft 415kts
17-Nov-18 19:06 39.943455 -100.004138 250 32003ft 413kts
17-Nov-18 19:07 39.899796 -100.140780 250 32006ft 410kts
17-Nov-18 19:08 39.856286 -100.276292 250 32020ft 408kts
17-Nov-18 19:09 39.812724 -100.411303 250 32026ft 405kts
17-Nov-18 19:10 39.769448 -100.544147 249 32024ft 403kts
17-Nov-18 19:11 39.723387 -100.675577 248 32035ft 402kts
17-Nov-18 19:12 39.676423 -100.806737 247 32034ft 402kts
17-Nov-18 19:13 39.629331 -100.937389 248 32017ft 402kts
17-Nov-18 19:14 39.581993 -101.068198 248 31733ft 408kts
17-Nov-18 19:15 39.533951 -101.200490 247 29867ft 408kts
17-Nov-18 19:16 39.489689 -101.325892 249 27981ft 409kts
17-Nov-18 19:17 39.444382 -101.460092 249 25977ft 411kts
17-Nov-18 19:18 39.398636 -101.595775 249 24008ft 415kts
17-Nov-18 19:19 39.357346 -101.728224 251 23960ft 400kts
17-Nov-18 19:20 39.317584 -101.867237 251 23953ft 427kts
17-Nov-18 19:21 39.275668 -102.012940 251 23939ft 438kts
17-Nov-18 19:22 39.233465 -102.158849 251 24208ft 440kts
17-Nov-18 19:23 39.190429 -102.306834 251 24343ft 444kts
17-Nov-18 19:24 39.146812 -102.455960 251 24339ft 445kts
17-Nov-18 19:25 39.103167 -102.604363 251 24338ft 442kts
17-Nov-18 19:26 39.060367 -102.749064 251 23786ft 430kts
17-Nov-18 19:27 39.019190 -102.887604 251 21992ft 405kts
17-Nov-18 19:28 38.979817 -103.019442 250 20187ft 386kts
17-Nov-18 19:29 38.942124 -103.145060 250 18325ft 369kts
17-Nov-18 19:30 38.905862 -103.265312 249 16477ft 359kts
17-Nov-18 19:31 38.871473 -103.378826 249 16029ft 343kts
17-Nov-18 19:32 38.835427 -103.497380 249 16024ft 370kts
17-Nov-18 19:33 38.811800 -103.619635 278 16032ft 352kts
17-Nov-18 19:34 38.837636 -103.724744 286 16018ft 344kts
17-Nov-18 19:35 38.868577 -103.838871 287 15991ft 336kts
17-Nov-18 19:36 38.898837 -103.950089 287 15975ft 330kts
17-Nov-18 19:37 38.928121 -104.058741 287 14945ft 324kts
17-Nov-18 19:38 38.956759 -104.167668 287 12981ft 328kts
17-Nov-18 19:39 38.984813 -104.278053 287 11006ft 326kts
17-Nov-18 19:40 39.008766 -104.380137 287 9776ft 274kts
17-Nov-18 19:41 39.029310 -104.471426 287 8959ft 254kts
17-Nov-18 19:42 39.049081 -104.560413 288 8964ft 261kts
17-Nov-18 19:43 39.063853 -104.646669 256 8958ft 238kts
17-Nov-18 19:44 39.014638 -104.683905 194 8974ft 239kts
17-Nov-18 19:45 38.953236 -104.685521 181 8852ft 197kts
17-Nov-18 19:46 38.908409 -104.685497 181 7992ft 134kts
17-Nov-18 19:47 38.868098 -104.685609 181 7252ft 148kts
17-Nov-18 19:48 38.830651 -104.685703 181 6551ft 139kts
17-Nov-18 19:49 38.802484 -104.685756 187 6199ft 12kts
17-Nov-18 19:50 38.802200 -104.686753 304 6199ft 0kts
17-Nov-18 19:51 38.803151 -104.688932 268 6199ft 10kts
17-Nov-18 19:52 38.803105 -104.694625 267 6199ft 18kts
17-Nov-18 19:53 38.803117 -104.700105 273 6199ft 0kts
17-Nov-18 19:54 38.801123 -104.700953 180 6199ft 17kts
17-Nov-18 19:55 38.799287 -104.701198 247 6199ft 6kts
17-Nov-18 19:56 38.799234 -104.701677 267 6199ft 0kts
17-Nov-18 19:57 38.799234 -104.701677 267 6199ft 0kts
17-Nov-18 19:58 38.799234 -104.701677 267 6199ft 0kts
17-Nov-18 19:59 38.799234 -104.701677 267 6199ft 0kts
17-Nov-18 20:00 38.799234 -104.701677 267 6199ft 0kts
17-Nov-18 20:01 38.799234 -104.701677 267 6199ft 0kts
17-Nov-18 20:02 38.799234 -104.701677 267 6199ft 0kts
17-Nov-18 20:03 38.799234 -104.701677 267 6199ft 0kts

Navigation Log

Ident Type
Flight plan parsing failed, navigation log unavailable